Time;durP1;ratioP1;P1;durP2;ratioP2;P2;SDS_P1;SDS_P2;PMS_P1;PMS_P2;Temp;Humidity;BMP_temperature;BMP_pressure;BME280_temperature;BME280_humidity;BME280_pressure;Samples;Min_cycle;Max_cycle;Signal;HPM_P1;HPM_P2
2021/01/11 00:00:28;;;;;;;21.52;13.63;;;;;;;;;;5048275;28;20018;-76
2021/01/11 00:02:54;;;;;;;20.02;13.40;;;;;;;;;;5032916;28;20041;-78
2021/01/11 00:05:21;;;;;;;20.90;13.43;;;;;;;;;;5032955;28;20025;-76
2021/01/11 00:07:47;;;;;;;19.52;13.05;;;;;;;;;;5048363;28;20112;-78
2021/01/11 00:10:13;;;;;;;19.73;13.38;;;;;;;;;;5032931;28;20076;-75
2021/01/11 00:12:40;;;;;;;21.30;13.80;;;;;;;;;;5032864;28;20029;-77
2021/01/11 00:15:10;;;;;;;20.80;13.77;;;;;;;;;;5048195;28;20026;-77
2021/01/11 00:17:36;;;;;;;19.75;13.20;;;;;;;;;;5048086;28;20350;-76
2021/01/11 00:20:03;;;;;;;20.85;13.32;;;;;;;;;;5047779;28;20509;-76
2021/01/11 00:22:29;;;;;;;21.75;13.35;;;;;;;;;;5032401;28;20056;-78
2021/01/11 00:24:55;;;;;;;21.00;14.00;;;;;;;;;;5048159;28;20440;-78
2021/01/11 00:27:21;;;;;;;21.60;13.68;;;;;;;;;;5048315;28;20099;-78
2021/01/11 00:29:47;;;;;;;20.52;12.93;;;;;;;;;;5032777;28;20045;-77
2021/01/11 00:32:14;;;;;;;19.83;13.02;;;;;;;;;;5048009;28;20022;-77
2021/01/11 00:34:40;;;;;;;19.55;12.85;;;;;;;;;;5048056;28;20029;-76
2021/01/11 00:37:06;;;;;;;20.98;13.27;;;;;;;;;;5032732;28;20079;-77
2021/01/11 00:39:32;;;;;;;18.70;13.25;;;;;;;;;;5032542;28;20455;-78
2021/01/11 00:42:01;;;;;;;20.13;13.48;;;;;;;;;;5033565;28;20606;-76
2021/01/11 00:44:28;;;;;;;20.48;12.43;;;;;;;;;;5036433;28;20033;-77
2021/01/11 00:47:01;;;;;;;20.35;12.82;;;;;;;;;;5036424;28;20527;-77
2021/01/11 00:49:27;;;;;;;20.20;12.80;;;;;;;;;;5051619;28;20384;-78
2021/01/11 00:51:54;;;;;;;18.90;12.43;;;;;;;;;;5036178;28;20477;-77
2021/01/11 00:54:20;;;;;;;19.25;13.27;;;;;;;;;;5051555;28;20124;-77
2021/01/11 00:56:46;;;;;;;19.83;12.57;;;;;;;;;;5036107;28;20026;-77
2021/01/11 00:59:13;;;;;;;19.10;12.23;;;;;;;;;;5051344;28;20030;-77
2021/01/11 01:01:47;;;;;;;21.52;13.10;;;;;;;;;;5035737;28;20037;-77
2021/01/11 01:04:13;;;;;;;19.08;12.57;;;;;;;;;;5035936;28;20037;-76
2021/01/11 01:06:39;;;;;;;19.85;12.75;;;;;;;;;;5035780;28;20025;-78
2021/01/11 01:09:05;;;;;;;19.13;12.50;;;;;;;;;;5051301;28;20022;-78
2021/01/11 01:11:31;;;;;;;19.55;12.43;;;;;;;;;;5035860;28;20026;-75
2021/01/11 01:13:57;;;;;;;20.10;13.38;;;;;;;;;;5035816;28;20032;-75
2021/01/11 01:16:27;;;;;;;19.55;12.68;;;;;;;;;;5035880;28;20491;-78
2021/01/11 01:18:53;;;;;;;20.13;12.82;;;;;;;;;;5035809;28;20036;-75
2021/01/11 01:21:19;;;;;;;19.40;12.63;;;;;;;;;;5035544;28;20018;-75
2021/01/11 01:23:45;;;;;;;22.58;13.32;;;;;;;;;;5035531;28;20041;-75
2021/01/11 01:26:11;;;;;;;17.98;12.35;;;;;;;;;;5050910;28;20377;-75
2021/01/11 01:28:37;;;;;;;20.25;13.48;;;;;;;;;;5035564;28;20075;-75
2021/01/11 01:31:03;;;;;;;21.35;12.63;;;;;;;;;;5035421;28;20026;-75
2021/01/11 01:33:29;;;;;;;18.92;12.15;;;;;;;;;;5035477;28;20028;-77
2021/01/11 01:35:55;;;;;;;19.98;12.98;;;;;;;;;;5035512;28;20110;-78
2021/01/11 01:38:21;;;;;;;20.63;13.27;;;;;;;;;;5035454;28;20053;-75
2021/01/11 01:40:47;;;;;;;18.70;12.20;;;;;;;;;;5050693;28;20033;-77
2021/01/11 01:43:14;;;;;;;19.92;12.85;;;;;;;;;;5050582;28;20435;-78
2021/01/11 01:45:40;;;;;;;19.42;12.82;;;;;;;;;;5035069;28;20104;-77
2021/01/11 01:48:07;;;;;;;21.70;12.73;;;;;;;;;;5035100;28;20025;-75
2021/01/11 01:50:33;;;;;;;18.17;12.63;;;;;;;;;;5050342;28;20021;-76
2021/01/11 01:52:59;;;;;;;19.77;12.40;;;;;;;;;;5034836;28;20036;-76
2021/01/11 01:55:25;;;;;;;20.08;13.07;;;;;;;;;;5034782;28;20021;-75
2021/01/11 01:57:53;;;;;;;18.85;12.90;;;;;;;;;;5035073;28;20048;-77
2021/01/11 02:00:19;;;;;;;18.13;12.10;;;;;;;;;;5050398;28;20021;-75
2021/01/11 02:02:45;;;;;;;18.73;12.63;;;;;;;;;;5034903;28;20037;-78
2021/01/11 02:05:12;;;;;;;16.02;11.43;;;;;;;;;;5034899;28;20022;-77
2021/01/11 02:07:56;;;;;;;19.10;12.50;;;;;;;;;;5034847;28;20104;-75
2021/01/11 02:10:37;;;;;;;19.95;12.98;;;;;;;;;;5034731;28;20473;-76
2021/01/11 02:13:22;;;;;;;20.20;13.27;;;;;;;;;;5034778;28;20053;-78
2021/01/11 02:15:53;;;;;;;20.85;13.50;;;;;;;;;;5034790;28;20013;-78
2021/01/11 02:18:24;;;;;;;19.77;12.70;;;;;;;;;;5050117;28;20036;-78
2021/01/11 02:21:03;;;;;;;17.80;12.20;;;;;;;;;;5049959;28;20067;-77
2021/01/11 02:23:48;;;;;;;19.13;13.05;;;;;;;;;;5034544;28;20092;-77
2021/01/11 02:26:33;;;;;;;20.70;13.65;;;;;;;;;;5034416;28;20040;-78
2021/01/11 02:29:13;;;;;;;21.08;12.73;;;;;;;;;;5034394;28;20023;-77
2021/01/11 02:31:40;;;;;;;21.33;13.00;;;;;;;;;;5045084;28;20071;-77
2021/01/11 02:34:06;;;;;;;20.30;12.55;;;;;;;;;;5034336;28;20052;-75
2021/01/11 02:36:33;;;;;;;17.77;12.02;;;;;;;;;;5034349;28;20060;-77
2021/01/11 02:39:00;;;;;;;21.15;13.52;;;;;;;;;;5049451;28;20465;-77
2021/01/11 02:41:26;;;;;;;19.77;13.00;;;;;;;;;;5049368;28;20061;-76
2021/01/11 02:43:52;;;;;;;19.40;12.65;;;;;;;;;;5049374;28;20064;-76
2021/01/11 02:46:18;;;;;;;19.20;12.90;;;;;;;;;;5034125;28;20021;-77
2021/01/11 02:48:56;;;;;;;20.45;12.30;;;;;;;;;;5034117;28;20039;-75
2021/01/11 02:51:27;;;;;;;19.98;13.02;;;;;;;;;;5049331;28;20117;-77
2021/01/11 02:53:53;;;;;;;19.95;12.60;;;;;;;;;;5034017;28;20036;-77
2021/01/11 02:56:35;;;;;;;21.48;13.02;;;;;;;;;;5033911;28;20026;-76
2021/01/11 02:59:07;;;;;;;18.92;12.25;;;;;;;;;;5033895;28;20017;-78
2021/01/11 03:01:39;;;;;;;18.83;12.13;;;;;;;;;;5033776;28;20032;-76
2021/01/11 03:04:06;;;;;;;19.95;13.60;;;;;;;;;;5033759;28;20505;-77
2021/01/11 03:06:33;;;;;;;20.42;13.32;;;;;;;;;;5032661;28;20384;-76
2021/01/11 03:09:06;;;;;;;19.48;12.52;;;;;;;;;;5033595;28;20037;-77
2021/01/11 03:11:36;;;;;;;18.20;12.65;;;;;;;;;;5033604;28;20164;-76
2021/01/11 03:14:02;;;;;;;19.45;12.65;;;;;;;;;;5049015;28;20033;-76
2021/01/11 03:16:28;;;;;;;18.02;11.50;;;;;;;;;;5033602;28;20041;-76
2021/01/11 03:18:54;;;;;;;17.35;12.00;;;;;;;;;;5048816;28;20484;-75
2021/01/11 03:21:20;;;;;;;20.05;12.73;;;;;;;;;;5033468;28;20485;-78
2021/01/11 03:23:46;;;;;;;19.00;12.45;;;;;;;;;;5033322;28;20091;-76
2021/01/11 03:26:12;;;;;;;18.23;12.30;;;;;;;;;;5033134;28;20033;-77
2021/01/11 03:28:38;;;;;;;19.70;12.80;;;;;;;;;;5033239;28;20047;-77
2021/01/11 03:31:07;;;;;;;18.10;11.95;;;;;;;;;;5048561;28;20429;-76
2021/01/11 03:33:33;;;;;;;20.58;13.20;;;;;;;;;;5048612;28;20523;-77
2021/01/11 03:36:00;;;;;;;18.98;11.98;;;;;;;;;;5048649;28;20025;-77
2021/01/11 03:38:26;;;;;;;19.13;12.50;;;;;;;;;;5048434;28;20045;-77
2021/01/11 03:40:59;;;;;;;19.35;12.65;;;;;;;;;;5048523;28;20022;-77
2021/01/11 03:43:25;;;;;;;22.70;13.25;;;;;;;;;;5033418;28;20420;-76
2021/01/11 03:45:51;;;;;;;20.10;12.68;;;;;;;;;;5033208;28;20449;-77
2021/01/11 03:48:18;;;;;;;17.92;12.40;;;;;;;;;;5048431;28;20021;-78
2021/01/11 03:50:44;;;;;;;18.08;12.35;;;;;;;;;;5032904;28;20029;-77
2021/01/11 03:53:10;;;;;;;18.10;12.48;;;;;;;;;;5032944;28;20472;-77
2021/01/11 03:55:39;;;;;;;19.58;12.82;;;;;;;;;;5033158;28;20123;-77
2021/01/11 03:58:05;;;;;;;19.40;13.27;;;;;;;;;;5048450;28;20029;-77
2021/01/11 04:00:31;;;;;;;19.92;12.45;;;;;;;;;;5032837;28;20022;-77
2021/01/11 04:02:58;;;;;;;19.95;12.77;;;;;;;;;;5032942;28;20112;-76
2021/01/11 04:05:26;;;;;;;21.38;12.68;;;;;;;;;;5032812;28;20028;-77
2021/01/11 04:07:52;;;;;;;18.13;13.07;;;;;;;;;;5032911;28;20453;-78
2021/01/11 04:10:18;;;;;;;18.92;11.93;;;;;;;;;;5032981;28;20255;-76
2021/01/11 04:12:44;;;;;;;19.55;12.55;;;;;;;;;;5048286;28;20116;-77
2021/01/11 04:15:10;;;;;;;17.70;11.75;;;;;;;;;;5032814;28;20017;-76
2021/01/11 04:17:36;;;;;;;19.23;12.73;;;;;;;;;;5050313;28;20387;-78
2021/01/11 04:20:03;;;;;;;18.23;13.15;;;;;;;;;;5036897;28;20033;-76
2021/01/11 04:22:29;;;;;;;20.90;12.30;;;;;;;;;;5036788;28;20057;-77
2021/01/11 04:24:55;;;;;;;20.38;12.50;;;;;;;;;;5036739;28;20033;-76
2021/01/11 04:27:21;;;;;;;17.95;12.30;;;;;;;;;;5036650;28;20455;-76
2021/01/11 04:29:47;;;;;;;17.67;11.45;;;;;;;;;;5051976;28;20473;-77
2021/01/11 04:32:13;;;;;;;20.30;12.88;;;;;;;;;;5052011;28;20396;-78
2021/01/11 04:34:40;;;;;;;17.92;12.05;;;;;;;;;;5036645;28;20029;-78
2021/01/11 04:37:09;;;;;;;18.92;12.07;;;;;;;;;;5036461;28;20018;-77
2021/01/11 04:39:35;;;;;;;18.30;12.10;;;;;;;;;;5051764;28;20400;-77
2021/01/11 04:42:07;;;;;;;17.52;11.68;;;;;;;;;;5036587;28;20028;-77
2021/01/11 04:44:33;;;;;;;19.70;12.80;;;;;;;;;;5036423;28;20033;-77
2021/01/11 04:47:00;;;;;;;19.50;12.30;;;;;;;;;;5036446;28;20103;-77
2021/01/11 04:49:26;;;;;;;18.75;11.40;;;;;;;;;;5036309;28;20029;-77
2021/01/11 04:51:52;;;;;;;18.95;13.00;;;;;;;;;;5036013;28;20014;-77
2021/01/11 04:54:18;;;;;;;17.60;11.88;;;;;;;;;;5051602;28;20032;-77
2021/01/11 04:56:47;;;;;;;17.40;12.00;;;;;;;;;;5036224;28;20040;-77
2021/01/11 04:59:17;;;;;;;18.63;12.65;;;;;;;;;;5036052;28;20029;-77
2021/01/11 05:01:43;;;;;;;17.73;12.70;;;;;;;;;;5051089;28;20047;-75
2021/01/11 05:04:11;;;;;;;17.67;11.95;;;;;;;;;;5051232;28;20033;-77
2021/01/11 05:06:37;;;;;;;18.70;12.40;;;;;;;;;;5035891;28;20022;-77
2021/01/11 05:09:07;;;;;;;17.02;11.38;;;;;;;;;;5051292;28;20040;-77
2021/01/11 05:11:34;;;;;;;20.63;12.38;;;;;;;;;;5051345;28;20018;-77
2021/01/11 05:14:00;;;;;;;18.20;11.57;;;;;;;;;;5035913;28;20025;-77
2021/01/11 05:16:26;;;;;;;18.08;11.15;;;;;;;;;;5051034;28;20385;-77
2021/01/11 05:18:57;;;;;;;18.13;11.50;;;;;;;;;;5035598;28;20022;-78
2021/01/11 05:21:39;;;;;;;20.02;11.73;;;;;;;;;;5035645;28;20029;-77
2021/01/11 05:24:25;;;;;;;16.50;11.35;;;;;;;;;;5035622;28;20033;-77
2021/01/11 05:26:51;;;;;;;18.80;11.90;;;;;;;;;;5050581;28;20385;-77
2021/01/11 05:29:17;;;;;;;18.88;11.95;;;;;;;;;;5034027;28;20156;-77
2021/01/11 05:31:54;;;;;;;22.48;12.43;;;;;;;;;;5034911;28;20377;-76
2021/01/11 05:34:20;;;;;;;18.50;12.40;;;;;;;;;;5035247;28;20025;-77
2021/01/11 05:36:46;;;;;;;17.20;12.10;;;;;;;;;;5050589;28;20091;-78
2021/01/11 05:39:13;;;;;;;17.60;12.15;;;;;;;;;;5035096;28;20052;-77
2021/01/11 05:41:42;;;;;;;17.20;11.70;;;;;;;;;;5035218;28;20106;-77
2021/01/11 05:44:11;;;;;;;19.13;12.48;;;;;;;;;;5050559;28;20036;-77
2021/01/11 05:46:37;;;;;;;17.25;11.23;;;;;;;;;;5035157;28;20527;-77
2021/01/11 05:49:05;;;;;;;18.63;11.95;;;;;;;;;;5050532;28;20034;-77
2021/01/11 05:51:32;;;;;;;17.77;11.55;;;;;;;;;;5035029;28;20026;-77
2021/01/11 05:53:58;;;;;;;18.08;11.82;;;;;;;;;;5050516;28;20018;-77
2021/01/11 05:56:25;;;;;;;17.77;11.65;;;;;;;;;;5050509;28;20543;-77
2021/01/11 05:59:03;;;;;;;18.17;12.20;;;;;;;;;;5035057;28;20032;-77
2021/01/11 06:01:33;;;;;;;17.02;11.35;;;;;;;;;;5034866;28;20022;-77
2021/01/11 06:03:59;;;;;;;17.58;11.40;;;;;;;;;;5034850;28;20041;-77
2021/01/11 06:06:25;;;;;;;18.17;12.07;;;;;;;;;;5050135;28;20071;-77
2021/01/11 06:08:52;;;;;;;17.73;11.20;;;;;;;;;;5034819;28;20087;-77
2021/01/11 06:11:22;;;;;;;18.40;12.02;;;;;;;;;;5034645;28;20469;-77
2021/01/11 06:13:49;;;;;;;16.88;12.20;;;;;;;;;;5050113;28;20029;-76
2021/01/11 06:16:19;;;;;;;16.85;11.30;;;;;;;;;;5034662;28;20397;-77
2021/01/11 06:18:49;;;;;;;16.83;11.40;;;;;;;;;;5034566;28;20030;-77
2021/01/11 06:21:16;;;;;;;17.25;11.68;;;;;;;;;;5034729;28;20057;-75
2021/01/11 06:23:42;;;;;;;17.23;12.23;;;;;;;;;;5034572;28;20037;-77
2021/01/11 06:26:27;;;;;;;16.85;11.30;;;;;;;;;;5034554;28;20416;-77
2021/01/11 06:28:53;;;;;;;17.40;11.48;;;;;;;;;;5034375;28;20049;-77
2021/01/11 06:31:25;;;;;;;21.17;11.20;;;;;;;;;;5034269;28;20018;-77
2021/01/11 06:33:51;;;;;;;17.83;11.75;;;;;;;;;;5034119;28;20018;-77
2021/01/11 06:36:31;;;;;;;17.88;11.30;;;;;;;;;;5034375;28;20025;-77
2021/01/11 06:39:05;;;;;;;16.88;10.95;;;;;;;;;;5049173;28;20072;-77
2021/01/11 06:41:32;;;;;;;17.17;10.77;;;;;;;;;;5033730;28;20021;-76
2021/01/11 06:44:04;;;;;;;18.27;10.48;;;;;;;;;;5034193;28;20053;-77
2021/01/11 06:46:30;;;;;;;19.17;11.45;;;;;;;;;;5049577;28;20026;-77
2021/01/11 06:48:57;;;;;;;20.88;12.60;;;;;;;;;;5049319;28;20025;-77
2021/01/11 06:51:30;;;;;;;17.27;11.35;;;;;;;;;;5048949;28;20025;-77
2021/01/11 06:54:12;;;;;;;17.00;11.10;;;;;;;;;;5033777;28;20021;-77
2021/01/11 06:56:39;;;;;;;16.25;10.57;;;;;;;;;;5049183;28;20463;-77
2021/01/11 06:59:06;;;;;;;18.23;12.05;;;;;;;;;;5033813;28;20076;-77
2021/01/11 07:01:36;;;;;;;18.33;11.63;;;;;;;;;;5048957;28;20025;-77
2021/01/11 07:04:02;;;;;;;17.83;11.68;;;;;;;;;;5049010;28;20037;-77
2021/01/11 07:06:40;;;;;;;16.35;11.52;;;;;;;;;;5033648;28;20538;-77
2021/01/11 07:09:09;;;;;;;17.80;11.95;;;;;;;;;;5048980;28;20400;-77
2021/01/11 07:11:36;;;;;;;14.77;10.23;;;;;;;;;;5033569;28;20101;-77
2021/01/11 07:14:03;;;;;;;17.35;11.10;;;;;;;;;;5048870;28;20061;-76
2021/01/11 07:16:58;;;;;;;16.45;11.27;;;;;;;;;;5048955;28;20120;-77
2021/01/11 07:19:36;;;;;;;17.60;11.55;;;;;;;;;;5033297;28;20039;-77
2021/01/11 07:22:04;;;;;;;29.75;11.40;;;;;;;;;;5044241;28;20068;-76
2021/01/11 07:24:30;;;;;;;19.15;11.13;;;;;;;;;;5050688;28;20032;-76
2021/01/11 07:26:57;;;;;;;27.45;12.05;;;;;;;;;;5052042;28;20392;-78
2021/01/11 07:29:23;;;;;;;20.67;11.20;;;;;;;;;;5049323;28;20056;-78
2021/01/11 07:31:50;;;;;;;22.00;11.20;;;;;;;;;;5052616;28;20029;-79
2021/01/11 07:34:16;;;;;;;25.35;11.57;;;;;;;;;;5053164;28;20025;-76
2021/01/11 07:36:51;;;;;;;21.40;11.32;;;;;;;;;;5051459;28;20025;-75
2021/01/11 07:39:20;;;;;;;21.17;10.48;;;;;;;;;;5051426;28;20053;-75
2021/01/11 07:41:46;;;;;;;18.85;10.52;;;;;;;;;;5051497;28;20055;-75
2021/01/11 07:44:14;;;;;;;23.35;11.55;;;;;;;;;;5050153;28;20511;-75
2021/01/11 07:46:40;;;;;;;19.13;10.55;;;;;;;;;;5051871;28;20032;-74
2021/01/11 07:49:16;;;;;;;25.58;10.98;;;;;;;;;;5052080;28;20033;-75
2021/01/11 07:51:44;;;;;;;17.30;10.52;;;;;;;;;;5050126;28;20025;-79
2021/01/11 07:54:13;;;;;;;19.80;10.63;;;;;;;;;;5050584;28;20353;-77
2021/01/11 07:56:39;;;;;;;19.45;10.63;;;;;;;;;;5050758;28;20029;-78
2021/01/11 07:59:06;;;;;;;20.92;11.30;;;;;;;;;;5050403;28;20472;-75
2021/01/11 08:01:37;;;;;;;22.02;9.55;;;;;;;;;;5050986;28;20032;-75
2021/01/11 08:04:04;;;;;;;16.77;8.85;;;;;;;;;;5050946;28;20029;-77
2021/01/11 08:06:31;;;;;;;13.15;7.75;;;;;;;;;;5050008;28;20024;-75
2021/01/11 08:08:58;;;;;;;14.77;8.07;;;;;;;;;;5047101;28;20120;-76
2021/01/11 08:11:25;;;;;;;13.80;8.48;;;;;;;;;;5030921;28;20507;-76
2021/01/11 08:13:51;;;;;;;12.23;8.25;;;;;;;;;;5031150;28;20025;-77
2021/01/11 08:16:17;;;;;;;12.05;7.43;;;;;;;;;;5043448;28;20036;-76
2021/01/11 08:18:43;;;;;;;15.60;7.65;;;;;;;;;;5051259;28;20104;-77
2021/01/11 08:21:10;;;;;;;13.35;7.63;;;;;;;;;;5051038;28;20110;-78
2021/01/11 08:23:37;;;;;;;11.52;7.20;;;;;;;;;;5051105;28;20064;-77
2021/01/11 08:26:06;;;;;;;15.85;7.57;;;;;;;;;;5049826;28;20025;-79
2021/01/11 08:28:33;;;;;;;13.98;6.95;;;;;;;;;;5038215;28;20021;-77
2021/01/11 08:31:00;;;;;;;12.63;7.40;;;;;;;;;;5029781;28;20028;-77
2021/01/11 08:33:27;;;;;;;12.23;6.80;;;;;;;;;;5033551;28;20061;-77
2021/01/11 08:35:53;;;;;;;12.07;6.90;;;;;;;;;;5049523;28;20021;-77
2021/01/11 08:38:19;;;;;;;9.13;6.30;;;;;;;;;;5048418;28;20090;-77
2021/01/11 08:40:49;;;;;;;10.75;6.85;;;;;;;;;;5049345;28;20036;-79
2021/01/11 08:43:23;;;;;;;11.35;6.93;;;;;;;;;;5050109;28;20036;-79
2021/01/11 08:45:55;;;;;;;15.25;7.15;;;;;;;;;;5048144;28;20028;-79
2021/01/11 08:48:25;;;;;;;9.88;6.25;;;;;;;;;;5050842;28;20021;-77
2021/01/11 08:50:51;;;;;;;11.45;6.55;;;;;;;;;;5050598;28;20090;-78
2021/01/11 08:53:18;;;;;;;10.60;6.22;;;;;;;;;;5050595;28;20403;-76
2021/01/11 08:56:00;;;;;;;9.85;5.85;;;;;;;;;;5049509;28;20021;-77
2021/01/11 08:58:27;;;;;;;10.45;6.75;;;;;;;;;;5050831;28;20032;-77
2021/01/11 09:01:07;;;;;;;10.57;6.05;;;;;;;;;;5049470;28;20613;-77
2021/01/11 09:03:44;;;;;;;9.48;5.93;;;;;;;;;;5051929;28;20036;-77
2021/01/11 09:06:10;;;;;;;10.57;6.47;;;;;;;;;;5033055;28;20057;-77
2021/01/11 09:08:36;;;;;;;8.93;5.38;;;;;;;;;;5032998;28;20018;-78
2021/01/11 09:11:11;;;;;;;8.93;4.72;;;;;;;;;;5032718;28;20512;-76
2021/01/11 09:13:38;;;;;;;10.23;6.05;;;;;;;;;;5034125;28;20100;-77
2021/01/11 09:16:16;;;;;;;9.95;5.72;;;;;;;;;;5033081;28;20029;-77
2021/01/11 09:18:43;;;;;;;10.38;5.70;;;;;;;;;;5034144;28;20379;-76
2021/01/11 09:21:09;;;;;;;12.25;5.68;;;;;;;;;;5032835;28;20017;-76
2021/01/11 09:23:35;;;;;;;10.80;5.63;;;;;;;;;;5034001;28;20120;-77
2021/01/11 09:26:01;;;;;;;13.10;6.50;;;;;;;;;;5034117;28;20064;-77
2021/01/11 09:28:27;;;;;;;11.73;5.60;;;;;;;;;;5034058;28;20040;-77
2021/01/11 09:30:54;;;;;;;7.93;5.03;;;;;;;;;;5033694;28;20029;-77
2021/01/11 09:33:20;;;;;;;9.85;5.68;;;;;;;;;;5032385;28;20030;-77
2021/01/11 09:35:46;;;;;;;7.28;5.07;;;;;;;;;;5034103;28;20033;-79
2021/01/11 09:38:12;;;;;;;11.35;6.03;;;;;;;;;;5033767;28;20041;-78
2021/01/11 09:40:39;;;;;;;8.18;5.53;;;;;;;;;;5033746;28;20101;-78
2021/01/11 09:43:05;;;;;;;10.02;5.50;;;;;;;;;;5033755;28;20108;-78
2021/01/11 09:45:31;;;;;;;8.38;5.32;;;;;;;;;;5038421;28;20029;-78
2021/01/11 09:47:57;;;;;;;10.85;5.30;;;;;;;;;;5053380;28;20104;-76
2021/01/11 09:50:23;;;;;;;8.98;5.80;;;;;;;;;;5053556;28;20079;-78
2021/01/11 09:52:50;;;;;;;11.13;6.25;;;;;;;;;;5052296;28;20601;-77
2021/01/11 09:55:17;;;;;;;10.85;6.18;;;;;;;;;;5053634;28;20017;-79
2021/01/11 09:57:43;;;;;;;10.48;5.88;;;;;;;;;;5052200;28;20047;-79
2021/01/11 10:00:10;;;;;;;9.77;5.53;;;;;;;;;;5053382;28;20028;-79
2021/01/11 10:02:36;;;;;;;9.25;6.25;;;;;;;;;;5053385;28;20120;-84
2021/01/11 10:05:03;;;;;;;8.80;5.32;;;;;;;;;;5052369;28;20127;-81
2021/01/11 10:07:29;;;;;;;9.45;6.10;;;;;;;;;;5052213;28;20029;-77
2021/01/11 10:09:55;;;;;;;11.98;6.25;;;;;;;;;;5053377;28;20048;-80
2021/01/11 10:12:21;;;;;;;10.95;5.63;;;;;;;;;;5053347;28;20017;-82
2021/01/11 10:14:47;;;;;;;8.50;5.55;;;;;;;;;;5052971;28;20476;-86
2021/01/11 10:17:13;;;;;;;13.23;5.78;;;;;;;;;;5053084;28;20021;-81
2021/01/11 10:19:39;;;;;;;9.02;5.63;;;;;;;;;;5052040;28;20033;-83
2021/01/11 10:22:05;;;;;;;8.75;6.07;;;;;;;;;;5052987;28;20025;-87
2021/01/11 10:24:31;;;;;;;8.38;5.07;;;;;;;;;;5053424;28;20060;-88
2021/01/11 10:26:57;;;;;;;8.63;5.63;;;;;;;;;;5053438;28;20416;-84
2021/01/11 10:29:24;;;;;;;8.82;6.13;;;;;;;;;;5052880;28;20392;-79
2021/01/11 10:31:51;;;;;;;8.18;5.78;;;;;;;;;;5051442;28;20570;-78
2021/01/11 10:34:18;;;;;;;8.85;5.90;;;;;;;;;;5051465;28;20060;-80
2021/01/11 10:36:45;;;;;;;10.30;6.07;;;;;;;;;;5052796;28;20384;-77
2021/01/11 10:39:12;;;;;;;11.30;5.80;;;;;;;;;;5051044;28;20092;-77
2021/01/11 10:41:38;;;;;;;8.18;5.40;;;;;;;;;;5051357;28;20055;-79
2021/01/11 10:44:05;;;;;;;8.85;5.68;;;;;;;;;;5052495;28;20028;-78
2021/01/11 10:46:31;;;;;;;9.18;5.88;;;;;;;;;;5051374;28;20516;-79
2021/01/11 10:48:58;;;;;;;8.40;5.70;;;;;;;;;;5052503;28;20036;-80
2021/01/11 10:51:25;;;;;;;7.68;5.35;;;;;;;;;;5051439;28;20021;-79
2021/01/11 10:53:51;;;;;;;11.48;6.43;;;;;;;;;;5052426;28;20117;-84
2021/01/11 10:56:17;;;;;;;11.43;5.95;;;;;;;;;;5052714;28;20075;-80
2021/01/11 10:58:43;;;;;;;8.07;5.35;;;;;;;;;;5052696;28;20025;-81
2021/01/11 11:01:11;;;;;;;8.02;5.30;;;;;;;;;;5052513;28;20499;-76
2021/01/11 11:03:37;;;;;;;8.20;5.22;;;;;;;;;;5049982;28;20588;-76
2021/01/11 11:06:03;;;;;;;7.95;5.78;;;;;;;;;;5031124;28;20063;-80
2021/01/11 11:08:30;;;;;;;8.95;5.28;;;;;;;;;;5030884;28;20515;-79
2021/01/11 11:10:56;;;;;;;8.20;5.13;;;;;;;;;;5031471;28;20022;-82
2021/01/11 11:13:22;;;;;;;7.30;5.43;;;;;;;;;;5032595;28;20025;-80
2021/01/11 11:15:48;;;;;;;7.63;5.22;;;;;;;;;;5032287;28;20028;-76
2021/01/11 11:18:15;;;;;;;8.95;5.60;;;;;;;;;;5035832;28;20025;-77
2021/01/11 11:20:41;;;;;;;10.15;5.53;;;;;;;;;;5052659;28;20059;-81
2021/01/11 11:23:07;;;;;;;9.77;5.82;;;;;;;;;;5055143;28;20029;-80
2021/01/11 11:25:33;;;;;;;11.75;5.82;;;;;;;;;;5051725;28;20021;-77
2021/01/11 11:28:00;;;;;;;8.40;5.40;;;;;;;;;;5051508;28;20067;-87
2021/01/11 11:30:26;;;;;;;9.10;5.65;;;;;;;;;;5050794;28;20021;-82
2021/01/11 11:32:53;;;;;;;10.63;5.35;;;;;;;;;;5050886;28;20056;-87
2021/01/11 11:35:20;;;;;;;9.50;5.43;;;;;;;;;;5051519;28;20032;-80
2021/01/11 11:37:46;;;;;;;8.63;5.47;;;;;;;;;;5050026;28;21248;-81
2021/01/11 11:40:13;;;;;;;7.40;5.10;;;;;;;;;;5049711;28;20127;-84
2021/01/11 11:42:40;;;;;;;9.05;5.80;;;;;;;;;;5049987;28;20039;-83
2021/01/11 11:45:07;;;;;;;8.18;5.53;;;;;;;;;;5050386;28;20075;-81
2021/01/11 11:47:37;;;;;;;8.13;5.57;;;;;;;;;;5050278;28;20037;-81
2021/01/11 11:50:07;;;;;;;9.82;5.85;;;;;;;;;;5051548;28;20034;-82
2021/01/11 11:52:33;;;;;;;11.40;5.72;;;;;;;;;;5051527;28;20376;-77
2021/01/11 11:54:59;;;;;;;8.02;5.50;;;;;;;;;;5051603;28;20017;-82
2021/01/11 11:57:25;;;;;;;13.13;5.97;;;;;;;;;;5050312;28;20395;-76
2021/01/11 11:59:51;;;;;;;12.23;5.72;;;;;;;;;;5037448;28;20030;-79
2021/01/11 12:02:17;;;;;;;10.45;6.18;;;;;;;;;;5030137;28;20067;-76
2021/01/11 12:04:43;;;;;;;8.77;5.63;;;;;;;;;;5040209;28;20021;-88
2021/01/11 12:07:14;;;;;;;8.20;5.35;;;;;;;;;;5051838;28;20021;-77
2021/01/11 12:09:40;;;;;;;10.85;5.88;;;;;;;;;;5051876;28;20029;-86
2021/01/11 12:12:07;;;;;;;8.70;5.97;;;;;;;;;;5051582;28;20168;-77
2021/01/11 12:14:33;;;;;;;9.07;6.10;;;;;;;;;;5050202;28;20138;-76
2021/01/11 12:16:59;;;;;;;13.07;6.20;;;;;;;;;;5051165;28;20422;-94
2021/01/11 12:19:25;;;;;;;10.32;5.30;;;;;;;;;;5051059;28;20021;-76
2021/01/11 12:21:51;;;;;;;8.25;5.50;;;;;;;;;;5051665;28;20100;-79
2021/01/11 12:24:17;;;;;;;9.43;5.90;;;;;;;;;;5051697;28;20037;-84
2021/01/11 12:26:44;;;;;;;7.60;5.18;;;;;;;;;;5051543;28;20024;-77
2021/01/11 12:29:11;;;;;;;9.18;5.68;;;;;;;;;;5051634;28;20395;-81
2021/01/11 12:31:37;;;;;;;7.70;5.50;;;;;;;;;;5050037;28;20436;-82
2021/01/11 12:34:04;;;;;;;7.57;5.30;;;;;;;;;;5049743;28;20017;-80
2021/01/11 12:36:31;;;;;;;11.35;5.32;;;;;;;;;;5030010;28;20501;-75
2021/01/11 12:38:58;;;;;;;8.50;5.57;;;;;;;;;;5033469;28;20056;-75
2021/01/11 12:41:25;;;;;;;10.48;5.15;;;;;;;;;;5034715;28;20026;-76
2021/01/11 12:43:51;;;;;;;10.13;6.03;;;;;;;;;;5034701;28;20034;-78
2021/01/11 12:46:18;;;;;;;8.50;5.75;;;;;;;;;;5033714;28;20017;-83
2021/01/11 12:48:45;;;;;;;8.10;5.05;;;;;;;;;;5034472;28;20155;-79
2021/01/11 12:51:15;;;;;;;8.18;5.30;;;;;;;;;;5033569;28;20017;-79
2021/01/11 12:53:44;;;;;;;7.47;4.88;;;;;;;;;;5033751;28;20043;-87
2021/01/11 12:56:19;;;;;;;9.48;6.05;;;;;;;;;;5042478;28;20059;-79
2021/01/11 12:58:45;;;;;;;8.63;5.65;;;;;;;;;;5049832;28;20155;-78
2021/01/11 13:01:18;;;;;;;8.80;6.20;;;;;;;;;;5052335;28;20482;-78
2021/01/11 13:03:45;;;;;;;12.43;6.53;;;;;;;;;;5051904;28;20037;-79
2021/01/11 13:06:30;;;;;;;7.75;5.10;;;;;;;;;;5034361;28;20026;-79
2021/01/11 13:08:56;;;;;;;9.35;5.43;;;;;;;;;;5034313;28;20481;-78
2021/01/11 13:11:23;;;;;;;8.50;5.53;;;;;;;;;;5033187;28;20026;-80
2021/01/11 13:13:50;;;;;;;9.68;6.30;;;;;;;;;;5034426;28;20021;-78
2021/01/11 13:16:32;;;;;;;10.07;6.20;;;;;;;;;;5033054;28;20029;-76
2021/01/11 13:19:03;;;;;;;8.43;5.55;;;;;;;;;;5033402;28;20124;-80
2021/01/11 13:21:29;;;;;;;7.63;5.28;;;;;;;;;;5033074;28;20025;-76
2021/01/11 13:23:55;;;;;;;8.15;5.38;;;;;;;;;;5032923;28;20038;-78
2021/01/11 13:26:29;;;;;;;9.10;5.60;;;;;;;;;;5034055;28;20018;-82
2021/01/11 13:28:57;;;;;;;11.52;6.10;;;;;;;;;;5032652;28;20021;-79
2021/01/11 13:31:24;;;;;;;10.65;6.30;;;;;;;;;;5033916;28;20061;-80
2021/01/11 13:33:50;;;;;;;9.90;6.50;;;;;;;;;;5032512;28;20020;-77
2021/01/11 13:36:23;;;;;;;11.85;6.70;;;;;;;;;;5033832;28;20484;-78
2021/01/11 13:38:49;;;;;;;11.07;7.35;;;;;;;;;;5033751;28;20107;-83
2021/01/11 13:41:15;;;;;;;10.82;7.22;;;;;;;;;;5032887;28;20029;-78
2021/01/11 13:43:41;;;;;;;10.07;6.93;;;;;;;;;;5032441;28;20184;-79
2021/01/11 13:46:07;;;;;;;15.68;8.82;;;;;;;;;;5032414;28;20029;-77
2021/01/11 13:48:33;;;;;;;15.25;8.77;;;;;;;;;;5033668;28;20029;-79
2021/01/11 13:51:00;;;;;;;14.75;8.50;;;;;;;;;;5032745;28;20484;-74
2021/01/11 13:53:26;;;;;;;14.45;8.85;;;;;;;;;;5032372;28;20030;-78
2021/01/11 13:55:52;;;;;;;14.98;10.02;;;;;;;;;;5033326;28;20469;-79
2021/01/11 13:58:18;;;;;;;16.30;10.02;;;;;;;;;;5065371;28;20380;-80
2021/01/11 14:00:44;;;;;;;12.85;8.75;;;;;;;;;;5033407;28;20438;-84
2021/01/11 14:03:11;;;;;;;13.93;8.95;;;;;;;;;;5033602;28;20079;-79
2021/01/11 14:05:37;;;;;;;11.90;7.93;;;;;;;;;;5031987;28;20469;-77
2021/01/11 14:08:03;;;;;;;14.38;8.75;;;;;;;;;;5033313;28;20048;-78
2021/01/11 14:10:29;;;;;;;14.82;9.52;;;;;;;;;;5033149;28;20035;-76
2021/01/11 14:12:55;;;;;;;12.88;7.75;;;;;;;;;;5033230;28;20018;-74
2021/01/11 14:15:21;;;;;;;15.32;8.57;;;;;;;;;;5033174;28;20072;-74
2021/01/11 14:17:48;;;;;;;12.00;8.38;;;;;;;;;;5031850;28;20414;-74
2021/01/11 14:20:15;;;;;;;13.80;7.70;;;;;;;;;;5033431;28;20029;-76
2021/01/11 14:22:41;;;;;;;13.32;7.72;;;;;;;;;;5033034;28;20032;-78
2021/01/11 14:25:07;;;;;;;12.43;8.07;;;;;;;;;;5033161;28;20021;-75
2021/01/11 14:27:33;;;;;;;14.30;7.75;;;;;;;;;;5033394;28;20024;-82
2021/01/11 14:29:59;;;;;;;11.80;7.57;;;;;;;;;;5031953;28;20033;-81